Time;durP1;ratioP1;P1;durP2;ratioP2;P2;SDS_P1;SDS_P2;PMS_P1;PMS_P2;Temp;Humidity;BMP_temperature;BMP_pressure;BME280_temperature;BME280_humidity;BME280_pressure;Samples;Min_cycle;Max_cycle;Signal;HPM_P1;HPM_P2
2023/04/19 00:01:20;;;;;;;25.08;18.60;;;9.90;99.90;;;;;;4656594;28;9999963;-72
2023/04/19 00:03:45;;;;;;;28.88;19.17;;;9.90;99.90;;;;;;5007054;28;20041;-72
2023/04/19 00:06:13;;;;;;;27.85;19.13;;;9.90;99.90;;;;;;5006517;28;20026;-73
2023/04/19 00:08:40;;;;;;;28.95;20.55;;;9.90;99.90;;;;;;4992607;28;20294;-72
2023/04/19 00:11:07;;;;;;;28.70;19.77;;;9.90;99.90;;;;;;5000251;28;20026;-72
2023/04/19 00:13:32;;;;;;;28.08;20.35;;;9.90;99.90;;;;;;5009690;28;20390;-71
2023/04/19 00:15:58;;;;;;;29.05;18.88;;;9.90;99.90;;;;;;4993731;28;20022;-72
2023/04/19 00:18:23;;;;;;;27.67;19.05;;;9.90;99.90;;;;;;5005163;28;20076;-72
2023/04/19 00:20:50;;;;;;;26.42;18.85;;;9.90;99.90;;;;;;5000990;28;20065;-72
2023/04/19 00:23:15;;;;;;;26.42;18.58;;;9.90;99.90;;;;;;5005818;28;20042;-73
2023/04/19 00:25:41;;;;;;;24.42;18.30;;;9.90;99.90;;;;;;5007223;28;20079;-72
2023/04/19 00:28:06;;;;;;;28.42;17.92;;;9.90;99.90;;;;;;5007753;28;20065;-73
2023/04/19 00:30:32;;;;;;;23.77;17.45;;;9.90;99.90;;;;;;5005499;28;20038;-73
2023/04/19 00:32:57;;;;;;;28.02;18.02;;;9.90;99.90;;;;;;5008316;28;20052;-70
2023/04/19 00:35:23;;;;;;;26.40;18.38;;;9.90;99.90;;;;;;4999522;28;20494;-71
2023/04/19 00:37:49;;;;;;;24.50;17.88;;;9.90;99.90;;;;;;5005125;28;20104;-73
2023/04/19 00:40:14;;;;;;;25.05;16.77;;;9.90;99.90;;;;;;5007346;28;20072;-71
2023/04/19 00:42:40;;;;;;;23.55;16.23;;;9.90;99.90;;;;;;5006653;28;20092;-73
2023/04/19 00:45:07;;;;;;;22.50;16.30;;;9.90;99.90;;;;;;5002906;28;20042;-73
2023/04/19 00:47:33;;;;;;;24.63;15.52;;;9.90;99.90;;;;;;5007240;28;20474;-73
2023/04/19 00:49:58;;;;;;;21.33;15.25;;;9.90;99.90;;;;;;4989046;28;20073;-73
2023/04/19 00:52:24;;;;;;;20.33;14.10;;;9.90;99.90;;;;;;5000973;28;20045;-74
2023/04/19 00:54:52;;;;;;;19.17;14.25;;;9.80;99.90;;;;;;4990112;28;20080;-73
2023/04/19 00:57:18;;;;;;;18.67;13.40;;;9.80;99.90;;;;;;4995229;28;20030;-72
2023/04/19 00:59:43;;;;;;;21.23;13.95;;;9.80;99.90;;;;;;5007586;28;20052;-72
2023/04/19 01:02:09;;;;;;;20.10;13.52;;;9.80;99.90;;;;;;5005812;28;20033;-73
2023/04/19 01:04:34;;;;;;;18.88;13.88;;;9.80;99.90;;;;;;5008640;28;20038;-73
2023/04/19 01:07:01;;;;;;;18.70;13.48;;;9.80;99.90;;;;;;4991976;28;20398;-73
2023/04/19 01:09:27;;;;;;;18.30;12.35;;;9.80;99.90;;;;;;5007847;28;20058;-73
2023/04/19 01:11:53;;;;;;;17.52;12.45;;;9.80;99.90;;;;;;5006592;28;20053;-73
2023/04/19 01:14:18;;;;;;;18.23;12.43;;;9.80;99.90;;;;;;5006110;28;20478;-73
2023/04/19 01:16:44;;;;;;;17.92;12.52;;;9.70;99.90;;;;;;5006839;28;20382;-73
2023/04/19 01:19:11;;;;;;;16.35;11.50;;;9.80;99.90;;;;;;5007874;28;20026;-73
2023/04/19 01:21:41;;;;;;;17.45;10.38;;;9.70;99.90;;;;;;5006750;28;20026;-73
2023/04/19 01:24:07;;;;;;;14.60;10.00;;;9.70;99.90;;;;;;5006461;28;20045;-74
2023/04/19 01:26:32;;;;;;;14.43;9.85;;;9.70;99.90;;;;;;5006240;28;20386;-72
2023/04/19 01:28:58;;;;;;;13.65;9.68;;;9.70;99.90;;;;;;5001526;28;20038;-72
2023/04/19 01:31:24;;;;;;;14.48;8.80;;;9.70;99.90;;;;;;5008264;28;20408;-72
2023/04/19 01:33:49;;;;;;;12.93;9.35;;;9.70;99.90;;;;;;5004674;28;20177;-73
2023/04/19 01:36:15;;;;;;;12.90;9.20;;;9.70;99.90;;;;;;5008389;28;20078;-73
2023/04/19 01:38:40;;;;;;;12.07;8.85;;;9.70;99.90;;;;;;5001980;28;20946;-72
2023/04/19 01:41:06;;;;;;;12.75;8.77;;;9.70;99.90;;;;;;5006563;28;20030;-73
2023/04/19 01:43:32;;;;;;;14.80;8.48;;;9.60;99.90;;;;;;5004730;28;20045;-73
2023/04/19 01:45:58;;;;;;;12.95;8.35;;;9.60;99.90;;;;;;4998149;28;20395;-73
2023/04/19 01:48:23;;;;;;;12.13;8.30;;;9.60;99.90;;;;;;4992802;28;20037;-73
2023/04/19 01:50:49;;;;;;;13.45;8.18;;;9.60;99.90;;;;;;5004046;28;20037;-73
2023/04/19 01:53:14;;;;;;;11.60;7.70;;;9.50;99.90;;;;;;4994548;28;20440;-72
2023/04/19 01:55:40;;;;;;;12.35;7.32;;;9.50;99.90;;;;;;5007510;28;20026;-72
2023/04/19 01:58:06;;;;;;;8.98;7.30;;;9.50;99.90;;;;;;5005481;28;20052;-72
2023/04/19 02:00:31;;;;;;;10.75;7.22;;;9.50;99.90;;;;;;4998861;28;20515;-72
2023/04/19 02:02:57;;;;;;;9.32;7.50;;;9.50;99.90;;;;;;4996992;28;20025;-72
2023/04/19 02:05:22;;;;;;;12.02;7.88;;;9.50;99.90;;;;;;5007835;28;20371;-72
2023/04/19 02:07:48;;;;;;;11.27;7.82;;;9.40;99.90;;;;;;5005685;28;20080;-72
2023/04/19 02:10:13;;;;;;;12.57;7.63;;;9.50;99.90;;;;;;4997998;28;20040;-72
2023/04/19 02:12:41;;;;;;;11.80;8.23;;;9.50;99.90;;;;;;5006144;28;20509;-72
2023/04/19 02:15:07;;;;;;;9.55;7.57;;;9.40;99.90;;;;;;5006124;28;20034;-73
2023/04/19 02:17:33;;;;;;;12.75;7.28;;;9.40;99.90;;;;;;4999867;28;20033;-72
2023/04/19 02:19:59;;;;;;;8.20;6.50;;;9.40;99.90;;;;;;4999713;28;20010;-72
2023/04/19 02:22:24;;;;;;;11.63;6.57;;;9.40;99.90;;;;;;4991570;28;20037;-73
2023/04/19 02:24:50;;;;;;;11.30;7.05;;;9.30;99.90;;;;;;5000317;28;20034;-72
2023/04/19 02:27:16;;;;;;;7.70;5.90;;;9.30;99.90;;;;;;5006446;28;20030;-73
2023/04/19 02:29:42;;;;;;;9.77;5.93;;;9.30;99.90;;;;;;5009037;28;20029;-73
2023/04/19 02:32:11;;;;;;;9.93;6.20;;;9.30;99.90;;;;;;5005931;28;20073;-73
2023/04/19 02:34:37;;;;;;;8.27;5.45;;;9.30;99.90;;;;;;5010886;28;20024;-72
2023/04/19 02:37:02;;;;;;;7.35;5.38;;;9.30;99.90;;;;;;5011026;28;20030;-72
2023/04/19 02:39:28;;;;;;;8.77;5.45;;;9.30;99.90;;;;;;5005887;28;20608;-73
2023/04/19 02:41:54;;;;;;;7.15;5.80;;;9.20;99.90;;;;;;5004626;28;20305;-72
2023/04/19 02:44:20;;;;;;;9.02;5.75;;;9.20;99.90;;;;;;5005268;28;20045;-72
2023/04/19 02:46:49;;;;;;;8.05;5.70;;;9.20;99.90;;;;;;4993488;28;20042;-72
2023/04/19 02:49:15;;;;;;;8.60;5.88;;;9.20;99.90;;;;;;5008214;28;20040;-72
2023/04/19 02:51:40;;;;;;;7.40;5.35;;;9.10;99.90;;;;;;5009751;28;20030;-73
2023/04/19 02:54:06;;;;;;;6.35;5.43;;;9.10;99.90;;;;;;5004717;28;20037;-72
2023/04/19 02:56:31;;;;;;;11.25;5.95;;;9.10;99.90;;;;;;4999506;28;20109;-73
2023/04/19 02:59:00;;;;;;;6.90;5.82;;;9.10;99.90;;;;;;5010401;28;20072;-72
2023/04/19 03:01:25;;;;;;;7.25;5.97;;;9.10;99.90;;;;;;5010156;28;20520;-73
2023/04/19 03:03:51;;;;;;;9.23;6.30;;;9.10;99.90;;;;;;5009039;28;20034;-72
2023/04/19 03:06:17;;;;;;;7.50;6.18;;;9.10;99.90;;;;;;5003290;28;20053;-72
2023/04/19 03:08:42;;;;;;;8.52;5.95;;;9.10;99.90;;;;;;5008927;28;20034;-72
2023/04/19 03:11:10;;;;;;;12.73;6.78;;;9.00;99.90;;;;;;5010304;28;20030;-72
2023/04/19 03:13:36;;;;;;;9.07;6.30;;;9.10;99.90;;;;;;5008794;28;20041;-72
2023/04/19 03:16:02;;;;;;;8.02;6.00;;;9.10;99.90;;;;;;5008250;28;20207;-71
2023/04/19 03:18:27;;;;;;;9.90;6.18;;;9.00;99.90;;;;;;5003377;28;20109;-72
2023/04/19 03:20:53;;;;;;;8.07;6.35;;;9.10;99.90;;;;;;5007301;28;20343;-72
2023/04/19 03:23:18;;;;;;;9.70;5.88;;;9.00;99.90;;;;;;5001276;28;20437;-73
2023/04/19 03:25:44;;;;;;;8.48;6.20;;;9.00;99.90;;;;;;5001617;28;20112;-73
2023/04/19 03:28:10;;;;;;;9.15;5.68;;;9.00;99.90;;;;;;4999882;28;20389;-73
2023/04/19 03:30:35;;;;;;;7.75;5.97;;;9.00;99.90;;;;;;5009213;28;20556;-73
2023/04/19 03:33:01;;;;;;;9.00;6.30;;;9.00;99.90;;;;;;5008012;28;20026;-73
2023/04/19 03:35:28;;;;;;;9.65;6.28;;;9.00;99.90;;;;;;5005256;28;20030;-72
2023/04/19 03:37:53;;;;;;;12.05;7.20;;;8.90;99.90;;;;;;5004472;28;20030;-72
2023/04/19 03:40:19;;;;;;;8.70;6.75;;;8.90;99.90;;;;;;4999033;28;20029;-73
2023/04/19 03:42:45;;;;;;;9.50;6.63;;;8.90;99.90;;;;;;5009302;28;20112;-72
2023/04/19 03:45:11;;;;;;;9.38;6.68;;;8.90;99.90;;;;;;5007888;28;20049;-73
2023/04/19 03:47:36;;;;;;;9.85;6.90;;;8.80;99.90;;;;;;5008337;28;20065;-72
2023/04/19 03:50:02;;;;;;;9.85;6.35;;;8.80;99.90;;;;;;5007957;28;20030;-73
2023/04/19 03:52:27;;;;;;;10.63;7.55;;;8.80;99.90;;;;;;5009414;28;20053;-72
2023/04/19 03:54:53;;;;;;;11.65;7.20;;;8.70;99.90;;;;;;5003577;28;20037;-72
2023/04/19 03:57:19;;;;;;;9.52;7.13;;;8.70;99.90;;;;;;5004552;28;20457;-71
2023/04/19 03:59:44;;;;;;;10.70;7.70;;;8.70;99.90;;;;;;5008555;28;20022;-72
2023/04/19 04:02:10;;;;;;;11.63;7.95;;;8.60;99.90;;;;;;5005547;28;20022;-72
2023/04/19 04:04:35;;;;;;;11.50;8.02;;;8.60;99.90;;;;;;5006157;28;20125;-72
2023/04/19 04:07:01;;;;;;;12.13;7.68;;;8.60;99.90;;;;;;5004152;28;20569;-72
2023/04/19 04:09:26;;;;;;;11.70;7.88;;;8.60;99.90;;;;;;5003781;28;20029;-72
2023/04/19 04:11:52;;;;;;;11.68;7.60;;;8.50;99.90;;;;;;4996251;28;20494;-72
2023/04/19 04:14:18;;;;;;;12.15;7.68;;;8.50;99.90;;;;;;5008989;28;20028;-72
2023/04/19 04:16:43;;;;;;;8.85;7.22;;;8.50;99.90;;;;;;5008958;28;20069;-73
2023/04/19 04:19:09;;;;;;;10.57;8.20;;;8.50;99.90;;;;;;5006026;28;20033;-72
2023/04/19 04:21:34;;;;;;;10.85;8.10;;;8.40;99.90;;;;;;5006621;28;20034;-72
2023/04/19 04:24:00;;;;;;;13.30;8.80;;;8.40;99.90;;;;;;4995306;28;20032;-72
2023/04/19 04:26:29;;;;;;;13.45;7.93;;;8.40;99.90;;;;;;4991638;28;20512;-72
2023/04/19 04:28:56;;;;;;;11.73;7.85;;;8.30;99.90;;;;;;5002655;28;20033;-72
2023/04/19 04:31:22;;;;;;;11.63;7.47;;;8.30;99.90;;;;;;5003611;28;20041;-72
2023/04/19 04:33:47;;;;;;;12.90;7.75;;;8.30;99.90;;;;;;5003374;28;20033;-72
2023/04/19 04:36:14;;;;;;;14.95;8.63;;;8.30;99.90;;;;;;5005651;28;20022;-72
2023/04/19 04:38:40;;;;;;;12.93;7.97;;;8.30;99.90;;;;;;5000528;28;20097;-72
2023/04/19 04:41:06;;;;;;;13.68;9.00;;;8.30;99.90;;;;;;5001271;28;20080;-72
2023/04/19 04:43:32;;;;;;;14.43;8.40;;;8.20;99.90;;;;;;4998116;28;20441;-72
2023/04/19 04:45:58;;;;;;;12.00;8.15;;;8.20;99.90;;;;;;4994507;28;20567;-72
2023/04/19 04:48:24;;;;;;;11.88;8.10;;;8.10;99.90;;;;;;4995986;28;20038;-72
2023/04/19 04:50:49;;;;;;;10.88;7.43;;;8.10;99.90;;;;;;4976067;28;20026;-72
2023/04/19 04:53:15;;;;;;;13.55;7.78;;;8.10;99.90;;;;;;4989233;28;20409;-72
2023/04/19 04:55:41;;;;;;;10.82;7.82;;;8.00;99.90;;;;;;4992650;28;20038;-72
2023/04/19 04:58:06;;;;;;;12.00;8.05;;;8.00;99.90;;;;;;4999221;28;20047;-72
2023/04/19 05:00:32;;;;;;;10.52;7.68;;;8.00;99.90;;;;;;4996931;28;20036;-73
2023/04/19 05:02:58;;;;;;;12.15;8.35;;;7.90;99.90;;;;;;4992563;28;20758;-72
2023/04/19 05:05:24;;;;;;;11.63;7.93;;;7.90;99.90;;;;;;4993549;28;20568;-72
2023/04/19 05:07:50;;;;;;;10.70;7.57;;;7.90;99.90;;;;;;4998988;28;20034;-72
2023/04/19 05:10:16;;;;;;;10.88;7.55;;;7.90;99.90;;;;;;4996084;28;20033;-72
2023/04/19 05:12:41;;;;;;;12.27;8.13;;;7.80;99.90;;;;;;5001009;28;20026;-72
2023/04/19 05:15:07;;;;;;;15.52;7.65;;;7.80;99.90;;;;;;4993539;28;20294;-72
2023/04/19 05:17:33;;;;;;;13.40;7.60;;;7.80;99.90;;;;;;5005226;28;20075;-71
2023/04/19 05:19:59;;;;;;;11.07;7.40;;;7.80;99.90;;;;;;5002005;28;20029;-72
2023/04/19 05:22:25;;;;;;;13.93;7.70;;;7.70;99.90;;;;;;5005453;28;20038;-71
2023/04/19 05:24:50;;;;;;;11.10;7.30;;;7.70;99.90;;;;;;5003426;28;20095;-72
2023/04/19 05:27:16;;;;;;;18.25;7.78;;;7.70;99.90;;;;;;5009638;28;20037;-72
2023/04/19 05:29:41;;;;;;;11.85;7.30;;;7.70;99.90;;;;;;5002381;28;20022;-72
2023/04/19 05:32:07;;;;;;;12.48;7.35;;;7.70;99.90;;;;;;4994323;28;20026;-73
2023/04/19 05:34:33;;;;;;;12.02;7.97;;;7.70;99.90;;;;;;4998069;28;20022;-72
2023/04/19 05:36:59;;;;;;;11.10;7.15;;;7.60;99.90;;;;;;5004002;28;20037;-72
2023/04/19 05:39:25;;;;;;;10.68;6.95;;;7.60;99.90;;;;;;5000075;28;20245;-72
2023/04/19 05:41:50;;;;;;;11.20;7.28;;;7.60;99.90;;;;;;5003830;28;20022;-71
2023/04/19 05:44:16;;;;;;;9.52;6.35;;;7.50;99.90;;;;;;5009564;28;20029;-72
2023/04/19 05:46:42;;;;;;;13.93;7.30;;;7.50;99.90;;;;;;4998132;28;20172;-72
2023/04/19 05:49:07;;;;;;;11.95;7.63;;;7.50;99.90;;;;;;5008369;28;20038;-71
2023/04/19 05:51:33;;;;;;;10.93;7.22;;;7.50;99.90;;;;;;5006236;28;20104;-72
2023/04/19 05:54:02;;;;;;;10.55;6.93;;;7.40;99.90;;;;;;5007272;28;20026;-72
2023/04/19 05:56:28;;;;;;;14.77;7.40;;;7.50;99.90;;;;;;5000401;28;20031;-72
2023/04/19 05:58:55;;;;;;;16.00;7.32;;;7.50;99.90;;;;;;5003199;28;20034;-72
2023/04/19 06:01:21;;;;;;;12.55;7.57;;;7.50;99.90;;;;;;4999191;28;20060;-72
2023/04/19 06:03:51;;;;;;;13.75;7.35;;;7.50;99.90;;;;;;5004110;28;20113;-72
2023/04/19 06:06:18;;;;;;;14.27;7.75;;;7.50;99.90;;;;;;4997838;28;20030;-72
2023/04/19 06:08:43;;;;;;;10.85;6.53;;;7.50;99.90;;;;;;4997897;28;20093;-73
2023/04/19 06:11:09;;;;;;;13.68;7.72;;;7.50;99.90;;;;;;5001564;28;20125;-72
2023/04/19 06:13:35;;;;;;;11.57;6.95;;;7.50;99.90;;;;;;5007454;28;20030;-72
2023/04/19 06:16:01;;;;;;;10.85;7.13;;;7.50;99.90;;;;;;4993210;28;20034;-71
2023/04/19 06:18:27;;;;;;;12.85;6.95;;;7.50;99.90;;;;;;5003147;28;20034;-72
2023/04/19 06:20:52;;;;;;;11.13;6.95;;;7.50;99.90;;;;;;5003850;28;20037;-71
2023/04/19 06:23:18;;;;;;;10.70;7.40;;;7.60;99.90;;;;;;5008154;28;20077;-73
2023/04/19 06:25:44;;;;;;;11.18;7.35;;;7.60;99.90;;;;;;5009623;28;20026;-72
2023/04/19 06:28:09;;;;;;;13.40;6.95;;;7.60;99.90;;;;;;5003431;28;20038;-72
2023/04/19 06:30:35;;;;;;;15.50;7.35;;;7.70;99.90;;;;;;5004881;28;20049;-72
2023/04/19 06:33:01;;;;;;;11.10;6.60;;;;;;;;;;4999680;28;20037;-72
2023/04/19 06:35:27;;;;;;;8.75;6.38;;;;;;;;;;5005391;28;20036;-73
2023/04/19 06:37:53;;;;;;;12.80;6.78;;;7.90;99.90;;;;;;5006756;28;20352;-72
2023/04/19 06:40:18;;;;;;;10.38;6.10;;;8.00;99.90;;;;;;4996233;28;20026;-73
2023/04/19 06:42:44;;;;;;;12.65;6.80;;;8.00;99.90;;;;;;4991439;28;20034;-72
2023/04/19 06:45:10;;;;;;;11.40;6.60;;;8.10;99.90;;;;;;4998040;28;20061;-72
2023/04/19 06:47:36;;;;;;;10.88;6.85;;;;;;;;;;5010709;28;20556;-72
2023/04/19 06:50:02;;;;;;;12.73;6.78;;;8.10;99.90;;;;;;5009828;28;20121;-73
2023/04/19 06:52:28;;;;;;;8.95;5.75;;;8.10;99.90;;;;;;5009643;28;20026;-72
2023/04/19 06:54:53;;;;;;;10.85;5.65;;;8.10;99.90;;;;;;5005121;28;20599;-72
2023/04/19 06:57:19;;;;;;;9.65;5.82;;;8.20;99.90;;;;;;5005193;28;20037;-72
2023/04/19 06:59:44;;;;;;;9.93;5.80;;;8.20;99.90;;;;;;5002313;28;20018;-72
2023/04/19 07:02:10;;;;;;;14.38;6.00;;;8.30;99.90;;;;;;5002795;28;20089;-72
2023/04/19 07:04:36;;;;;;;13.93;5.70;;;8.30;99.90;;;;;;4991980;28;20030;-72
2023/04/19 07:07:03;;;;;;;9.88;5.65;;;8.40;99.90;;;;;;5010464;28;20478;-71
2023/04/19 07:09:28;;;;;;;8.55;5.30;;;8.40;99.90;;;;;;5008278;28;20100;-72
2023/04/19 07:11:54;;;;;;;9.98;5.10;;;8.40;99.90;;;;;;5007558;28;20492;-72
2023/04/19 07:14:20;;;;;;;8.35;5.40;;;;;;;;;;5009089;28;20034;-71
2023/04/19 07:16:46;;;;;;;9.38;4.75;;;8.40;99.90;;;;;;5002020;28;20491;-72
2023/04/19 07:19:12;;;;;;;9.82;4.85;;;8.40;99.90;;;;;;4992855;28;20105;-72
2023/04/19 07:21:38;;;;;;;6.60;4.70;;;8.50;99.90;;;;;;5004966;28;20451;-72
2023/04/19 07:24:05;;;;;;;5.63;4.30;;;8.50;99.90;;;;;;5005540;28;20113;-71
2023/04/19 07:26:31;;;;;;;10.45;4.70;;;8.70;99.90;;;;;;5006321;28;20025;-72
2023/04/19 07:28:58;;;;;;;8.23;4.47;;;8.80;99.90;;;;;;4990448;28;20100;-72
2023/04/19 07:31:24;;;;;;;6.95;4.25;;;8.80;99.90;;;;;;4995746;28;20073;-73
2023/04/19 07:33:50;;;;;;;7.70;4.40;;;8.90;99.90;;;;;;5006803;28;20440;-72
2023/04/19 07:36:16;;;;;;;8.77;4.47;;;8.80;99.90;;;;;;5001080;28;20018;-72
2023/04/19 07:38:41;;;;;;;8.90;4.72;;;8.70;99.90;;;;;;5004049;28;20470;-72
2023/04/19 07:41:07;;;;;;;5.72;4.47;;;8.80;99.90;;;;;;5006727;28;20025;-73
2023/04/19 07:43:33;;;;;;;6.13;4.20;;;8.80;99.90;;;;;;5008869;28;20052;-72
2023/04/19 07:45:59;;;;;;;6.88;4.38;;;8.90;99.90;;;;;;5008945;28;20125;-72
2023/04/19 07:48:25;;;;;;;8.52;3.85;;;8.80;99.90;;;;;;5008619;28;20057;-72
2023/04/19 07:50:50;;;;;;;8.00;4.32;;;8.80;99.90;;;;;;5006522;28;20116;-72
2023/04/19 07:53:17;;;;;;;5.68;4.00;;;8.80;99.90;;;;;;5004541;28;20025;-72
2023/04/19 07:55:42;;;;;;;6.72;4.13;;;9.00;99.90;;;;;;5003798;28;20030;-72
2023/04/19 07:58:08;;;;;;;8.57;4.20;;;9.00;99.90;;;;;;5004601;28;20180;-72
2023/04/19 08:00:35;;;;;;;8.65;4.70;;;9.20;99.90;;;;;;5009398;28;20125;-72
2023/04/19 08:03:02;;;;;;;6.57;4.10;;;9.30;99.90;;;;;;5005222;28;20146;-72
2023/04/19 08:05:28;;;;;;;6.22;3.80;;;9.40;99.90;;;;;;5007528;28;20034;-72
2023/04/19 08:07:54;;;;;;;5.70;3.88;;;9.50;99.90;;;;;;4994458;28;20666;-72
2023/04/19 08:10:20;;;;;;;9.70;4.13;;;9.50;99.90;;;;;;5000833;28;20050;-71
2023/04/19 08:12:45;;;;;;;7.93;4.38;;;9.60;99.90;;;;;;5001280;28;20415;-71
2023/04/19 08:15:11;;;;;;;8.13;3.90;;;9.60;99.90;;;;;;5005229;28;20088;-72
2023/04/19 08:17:39;;;;;;;6.60;4.10;;;9.60;99.90;;;;;;5003271;28;20062;-72
2023/04/19 08:20:05;;;;;;;6.75;3.83;;;9.70;99.90;;;;;;4998763;28;20425;-72
2023/04/19 08:22:31;;;;;;;8.20;3.80;;;;;;;;;;5007522;28;20063;-72
2023/04/19 08:24:57;;;;;;;5.60;3.75;;;;;;;;;;4990091;28;20034;-72
2023/04/19 08:27:25;;;;;;;6.90;4.55;;;;;;;;;;4997074;28;20042;-72
2023/04/19 08:29:51;;;;;;;6.78;3.58;;;;;;;;;;4996120;28;20363;-72
2023/04/19 08:32:17;;;;;;;6.45;3.90;;;;;;;;;;4988157;28;20060;-71
2023/04/19 08:34:45;;;;;;;9.35;4.20;;;;;;;;;;4993404;28;20026;-72
2023/04/19 08:37:11;;;;;;;9.07;3.78;;;;;;;;;;4995429;28;20064;-71
2023/04/19 08:39:37;;;;;;;5.85;3.92;;;;;;;;;;4999257;28;20054;-72
2023/04/19 08:42:04;;;;;;;6.05;3.95;;;;;;;;;;4989850;28;20028;-72
2023/04/19 08:44:31;;;;;;;6.63;3.70;;;;;;;;;;4995410;28;20033;-72
2023/04/19 08:46:58;;;;;;;5.72;3.83;;;;;;;;;;4993808;28;20506;-72
2023/04/19 08:49:25;;;;;;;5.93;3.75;;;;;;;;;;4996453;28;20066;-73
2023/04/19 08:51:51;;;;;;;6.00;4.03;;;;;;;;;;5003557;28;20116;-72
2023/04/19 08:54:17;;;;;;;6.38;3.60;;;;;;;;;;5004605;28;20500;-72
2023/04/19 08:56:43;;;;;;;8.68;3.70;;;;;;;;;;5005128;28;20026;-72
2023/04/19 08:59:09;;;;;;;7.90;4.07;;;;;;;;;;4996326;28;20029;-72
2023/04/19 09:01:35;;;;;;;6.68;3.38;;;;;;;;;;5002367;28;20113;-73
2023/04/19 09:04:04;;;;;;;5.78;3.85;;;;;;;;;;4995729;28;20026;-73
2023/04/19 09:06:35;;;;;;;9.00;3.72;;;;;;;;;;5004109;28;20437;-73
2023/04/19 09:09:34;;;;;;;6.03;3.63;;;;;;;;;;4989655;28;20390;-72
2023/04/19 09:12:01;;;;;;;7.78;4.13;;;;;;;;;;4939978;28;20138;-72
2023/04/19 09:14:27;;;;;;;6.00;4.00;;;;;;;;;;5003640;28;20041;-72
2023/04/19 09:16:53;;;;;;;7.07;3.83;;;;;;;;;;4996499;28;20018;-74
2023/04/19 09:19:19;;;;;;;9.77;4.30;;;;;;;;;;4994264;28;20049;-73
2023/04/19 09:21:46;;;;;;;12.40;3.88;;;;;;;;;;4999523;28;20029;-74
2023/04/19 09:24:12;;;;;;;5.47;3.80;;;;;;;;;;5008715;28;20552;-73
2023/04/19 09:26:38;;;;;;;5.63;3.45;;;;;;;;;;4997601;28;20033;-74
2023/04/19 09:29:05;;;;;;;7.38;3.60;;;;;;;;;;4998448;28;20038;-72
2023/04/19 09:31:32;;;;;;;6.97;4.18;;;;;;;;;;5003544;28;20022;-75
2023/04/19 09:34:11;;;;;;;5.13;3.10;;;;;;;;;;4999609;28;20017;-74
2023/04/19 09:36:37;;;;;;;7.22;3.58;;;;;;;;;;4997461;28;20049;-73
2023/04/19 09:39:04;;;;;;;6.40;3.85;;;;;;;;;;5000933;28;20041;-72
2023/04/19 09:41:36;;;;;;;6.20;3.40;;;;;;;;;;5005369;28;20233;-73
2023/04/19 09:44:14;;;;;;;7.60;3.45;;;;;;;;;;5009169;28;20109;-73
2023/04/19 09:46:41;;;;;;;10.13;3.35;;;;;;;;;;4992289;28;20038;-73
2023/04/19 09:49:26;;;;;;;7.65;3.72;;;;;;;;;;5011033;28;20041;-73
2023/04/19 09:51:53;;;;;;;7.47;3.92;;;;;;;;;;5002656;28;20037;-75
2023/04/19 09:54:20;;;;;;;6.55;3.63;;;;;;;;;;5002684;28;20025;-74
2023/04/19 09:56:46;;;;;;;8.27;3.40;;;;;;;;;;4994547;28;20026;-73
2023/04/19 09:59:12;;;;;;;6.00;3.20;;;;;;;;;;5004216;28;20026;-74
2023/04/19 10:01:42;;;;;;;7.65;3.30;;;;;;;;;;5009324;28;20033;-72
2023/04/19 10:04:10;;;;;;;6.38;3.17;;;;;;;;;;5001658;28;20022;-73
2023/04/19 10:06:36;;;;;;;2.97;2.65;;;;;;;;;;5005708;28;20490;-72
2023/04/19 10:09:03;;;;;;;4.65;2.60;;;;;;;;;;4997101;28;20037;-72
2023/04/19 10:11:40;;;;;;;6.68;2.58;;;11.20;99.90;;;;;;4994171;28;20037;-74
2023/04/19 10:14:08;;;;;;;3.63;2.47;;;11.20;99.90;;;;;;4997921;28;20655;-72
2023/04/19 10:16:35;;;;;;;5.78;2.70;;;11.00;99.90;;;;;;5000978;28;20030;-73
2023/04/19 10:19:07;;;;;;;12.45;3.60;;;10.90;99.90;;;;;;5001653;28;20062;-73
2023/04/19 10:21:33;;;;;;;5.38;3.08;;;;;;;;;;5003400;28;20080;-73
2023/04/19 10:24:00;;;;;;;3.70;3.25;;;;;;;;;;4997670;28;20135;-74
2023/04/19 10:26:26;;;;;;;7.18;3.33;;;11.30;99.90;;;;;;4997886;28;20042;-72
2023/04/19 10:28:56;;;;;;;4.13;2.88;;;11.40;99.90;;;;;;5001598;28;20025;-72
2023/04/19 10:31:25;;;;;;;7.53;3.72;;;11.30;99.90;;;;;;4997404;28;20022;-72
2023/04/19 10:33:51;;;;;;;5.50;3.13;;;11.10;99.90;;;;;;4998325;28;20500;-72
2023/04/19 10:36:17;;;;;;;6.15;3.60;;;11.20;99.90;;;;;;4995352;28;20030;-72
2023/04/19 10:38:54;;;;;;;3.63;3.00;;;11.40;99.90;;;;;;4993736;28;20045;-72
2023/04/19 10:41:20;;;;;;;7.95;3.55;;;11.50;99.90;;;;;;5007800;28;20053;-72
2023/04/19 10:43:56;;;;;;;5.70;3.33;;;11.60;99.90;;;;;;5006668;28;20045;-72
2023/04/19 10:46:23;;;;;;;5.00;3.30;;;11.80;99.90;;;;;;5002079;28;20401;-72
2023/04/19 10:48:56;;;;;;;4.63;3.45;;;11.90;99.90;;;;;;4993076;28;20034;-72
2023/04/19 10:51:48;;;;;;;7.05;3.20;;;;;;;;;;4990553;28;20034;-73
2023/04/19 10:54:26;;;;;;;12.55;3.72;;;12.00;99.90;;;;;;4992825;28;20103;-73
2023/04/19 10:57:05;;;;;;;6.60;3.58;;;12.10;99.90;;;;;;4993317;28;20570;-72
2023/04/19 10:59:39;;;;;;;9.23;3.55;;;12.10;99.90;;;;;;4997227;28;20509;-72
2023/04/19 11:02:31;;;;;;;6.47;3.53;;;12.20;99.90;;;;;;4995277;28;20498;-72
2023/04/19 11:04:59;;;;;;;6.60;3.60;;;;;;;;;;4995992;28;20501;-73
2023/04/19 11:07:25;;;;;;;5.68;3.47;;;;;;;;;;5001036;28;20129;-73
2023/04/19 11:09:51;;;;;;;6.68;3.42;;;;;;;;;;4995781;28;20089;-73
2023/04/19 11:12:18;;;;;;;5.20;3.25;;;;;;;;;;5002200;28;20026;-73
2023/04/19 11:14:45;;;;;;;4.75;3.30;;;;;;;;;;5004030;28;20386;-73
2023/04/19 11:17:17;;;;;;;5.13;3.17;;;;;;;;;;5001908;28;20030;-73
2023/04/19 11:20:07;;;;;;;5.30;3.10;;;12.20;95.50;;;;;;4999582;28;20038;-73
2023/04/19 11:22:38;;;;;;;5.15;3.17;;;12.20;94.20;;;;;;4997052;28;20034;-73
2023/04/19 11:25:24;;;;;;;4.53;2.97;;;12.10;94.60;;;;;;4995598;28;20068;-72
2023/04/19 11:27:51;;;;;;;12.13;3.10;;;12.40;93.40;;;;;;4994543;28;20145;-72
2023/04/19 11:30:21;;;;;;;7.18;2.97;;;;;;;;;;4996551;28;20022;-72
2023/04/19 11:32:52;;;;;;;7.22;3.00;;;12.30;92.60;;;;;;5004322;28;20068;-74
2023/04/19 11:35:26;;;;;;;6.97;3.22;;;12.20;93.00;;;;;;4999589;28;20022;-72
2023/04/19 11:37:53;;;;;;;13.90;3.05;;;12.10;93.40;;;;;;5000441;28;20526;-72
2023/04/19 11:40:20;;;;;;;8.30;3.50;;;;;;;;;;4996262;28;20060;-73
2023/04/19 11:42:45;;;;;;;7.78;3.70;;;12.10;99.90;;;;;;5002676;28;20079;-72
2023/04/19 11:45:22;;;;;;;7.60;3.50;;;12.20;99.90;;;;;;5008849;28;20038;-73
2023/04/19 11:47:49;;;;;;;7.78;3.10;;;11.90;94.20;;;;;;4992870;28;20034;-73
2023/04/19 11:50:34;;;;;;;6.40;3.55;;;12.10;99.90;;;;;;4996251;28;20038;-73
2023/04/19 11:53:09;;;;;;;9.32;3.30;;;;;;;;;;4989578;28;20026;-73
2023/04/19 11:55:35;;;;;;;19.35;3.72;;;;;;;;;;4990813;28;20116;-72
2023/04/19 11:58:00;;;;;;;6.65;3.72;;;11.90;95.40;;;;;;5002255;28;20022;-72
2023/04/19 12:00:27;;;;;;;4.97;3.45;;;12.00;93.80;;;;;;4998442;28;20100;-73
2023/04/19 12:02:54;;;;;;;5.43;3.50;;;12.20;93.90;;;;;;4992675;28;20035;-73
2023/04/19 12:05:19;;;;;;;4.97;3.58;;;12.40;92.90;;;;;;5001787;28;20390;-73
2023/04/19 12:08:06;;;;;;;5.50;3.75;;;12.50;95.80;;;;;;4998848;28;20029;-73
2023/04/19 12:10:33;;;;;;;8.48;4.13;;;12.50;95.70;;;;;;4991317;28;20156;-74
2023/04/19 12:12:58;;;;;;;5.35;3.47;;;12.50;96.90;;;;;;5004424;28;20041;-74
2023/04/19 12:15:43;;;;;;;10.70;4.00;;;12.40;95.00;;;;;;5007371;28;20033;-74
2023/04/19 12:18:09;;;;;;;6.60;4.00;;;12.40;93.60;;;;;;5007263;28;20061;-73
2023/04/19 12:20:35;;;;;;;6.80;3.72;;;;;;;;;;5000158;28;20050;-74
2023/04/19 12:23:02;;;;;;;6.25;3.97;;;12.40;93.00;;;;;;5005444;28;20041;-74
2023/04/19 12:25:32;;;;;;;6.28;4.28;;;12.30;92.40;;;;;;4993440;28;20489;-73
2023/04/19 12:28:00;;;;;;;4.85;3.30;;;12.30;93.30;;;;;;5005267;28;20030;-73
2023/04/19 12:30:25;;;;;;;9.27;4.15;;;12.40;93.80;;;;;;5006890;28;20180;-73
2023/04/19 12:32:54;;;;;;;5.90;3.70;;;12.60;91.60;;;;;;5009080;28;20109;-73
2023/04/19 12:35:24;;;;;;;11.88;4.05;;;;;;;;;;5005579;28;20022;-74
2023/04/19 12:37:51;;;;;;;7.63;4.15;;;12.40;90.10;;;;;;4998838;28;20061;-73
2023/04/19 12:40:16;;;;;;;5.75;3.72;;;12.40;90.50;;;;;;5006700;28;20042;-74
2023/04/19 12:42:42;;;;;;;5.00;3.47;;;12.40;90.30;;;;;;4990063;28;20399;-74
2023/04/19 12:45:08;;;;;;;6.10;3.45;;;;;;;;;;5005322;28;20042;-74
2023/04/19 12:47:34;;;;;;;5.43;3.20;;;12.30;89.30;;;;;;4997786;28;20128;-74
2023/04/19 12:50:00;;;;;;;5.63;3.35;;;;;;;;;;5004732;28;20161;-73
2023/04/19 12:52:26;;;;;;;5.38;3.53;;;12.20;86.90;;;;;;4997333;28;20029;-73
2023/04/19 12:54:51;;;;;;;5.03;3.38;;;12.30;90.00;;;;;;5000707;28;20022;-73
2023/04/19 12:57:17;;;;;;;5.53;3.30;;;12.40;84.60;;;;;;5005799;28;20525;-73
2023/04/19 12:59:43;;;;;;;4.85;2.85;;;12.40;84.60;;;;;;4997655;28;20037;-74
2023/04/19 13:02:08;;;;;;;7.90;3.33;;;12.40;84.80;;;;;;4995442;28;20032;-73
2023/04/19 13:04:35;;;;;;;5.50;3.67;;;;;;;;;;4997103;28;20069;-73
2023/04/19 13:07:01;;;;;;;6.78;3.13;;;12.50;83.80;;;;;;4986970;28;20111;-73
2023/04/19 13:09:27;;;;;;;5.75;3.20;;;12.50;81.80;;;;;;5002200;28;20077;-73